Main page
METAR-TAF:

METAR-TAF

Airports :

Orange Municipal Airport

Orange, Massachusetts, United States

latitude: 42-34-18N, longitude: 072-16-39W, elevation: 554 ft

Current weather observation

The report was made 35 minutes ago, at 04:52 UTC
Wind 10 mph from the South
Temperature 61°F
Humidity 77%
Pressure 29.94 in. Hg
Visibility: 8 miles
Few clouds at a height of 2300 ft
Overcast at a height of 5000 ft
light rain

METAR: KORE 210452Z AUTO 18009KT 8SM -RA FEW023 OVC050 16/12 A2994 RMK AO2 RAB23 SLP139 P0000 T01560122 402170156 TSNO

Time: 01:27 (05:27 UTC)


TAF: missing

Weather observations and forecasts of more than 4000 airports (METAR and TAF reports).

The available stations are represented by yellow and red dots on the map.

Hover mouse over dot to see the name of the station.

Then click to see weather observations and forecasts.

To change the map : click on the green buttons with a black cross to zoom in, on the green button with a dash to zoom out, or on the green arrows for adjacent maps.


METAR-TAF: